Time;durP1;ratioP1;P1;durP2;ratioP2;P2;SDS_P1;SDS_P2;PMS_P1;PMS_P2;Temp;Humidity;BMP_temperature;BMP_pressure;BME280_temperature;BME280_humidity;BME280_pressure;Samples;Min_cycle;Max_cycle;Signal;HPM_P1;HPM_P2
2022/06/18 00:02:23;;;;;;;3.90;3.50;;;;;;;;;;5085732;28;20711;-52
2022/06/18 00:04:49;;;;;;;3.03;2.83;;;;;;;;;;5086212;28;20182;-53
2022/06/18 00:07:20;;;;;;;3.53;3.23;;;;;;;;;;5087527;28;20620;-52
2022/06/18 00:09:52;;;;;;;3.33;3.13;;;;;;;;;;5086112;28;20190;-52
2022/06/18 00:15:14;;;;;;;3.50;3.20;;;;;;;;;;5087712;28;20194;-52
2022/06/18 00:17:40;;;;;;;3.63;3.33;;;;;;;;;;5088133;28;20278;-51
2022/06/18 00:20:07;;;;;;;3.50;3.20;;;;;;;;;;5084476;28;20741;-53
2022/06/18 00:22:33;;;;;;;3.77;3.43;;;;;;;;;;5066637;28;20202;-52
2022/06/18 00:25:00;;;;;;;3.20;3.00;;;;;;;;;;5086875;28;20724;-52
2022/06/18 00:27:27;;;;;;;3.80;3.50;;;;;;;;;;5087236;28;20194;-51
2022/06/18 00:29:53;;;;;;;3.47;3.27;;;;;;;;;;5068955;28;20185;-52
2022/06/18 00:32:20;;;;;;;3.10;2.90;;;;;;;;;;5085734;28;20538;-52
2022/06/18 00:34:46;;;;;;;3.50;3.30;;;;;;;;;;5065762;28;20192;-51
2022/06/18 00:37:17;;;;;;;3.47;3.23;;;;;;;;;;5068281;28;20691;-51
2022/06/18 00:39:44;;;;;;;4.60;3.17;;;;;;;;;;5085805;28;20686;-53
2022/06/18 00:42:25;;;;;;;2.93;2.73;;;;;;;;;;5066863;28;20677;-51
2022/06/18 00:44:54;;;;;;;3.70;3.40;;;;;;;;;;5077934;28;20678;-51
2022/06/18 00:47:32;;;;;;;3.33;3.13;;;;;;;;;;5071585;28;20180;-50
2022/06/18 00:50:07;;;;;;;4.63;3.23;;;;;;;;;;5067384;28;20433;-51
2022/06/18 00:52:54;;;;;;;4.33;3.20;;;;;;;;;;5067307;28;20203;-52
2022/06/18 00:55:26;;;;;;;5.57;4.07;;;;;;;;;;5080139;28;20500;-51
2022/06/18 00:58:04;;;;;;;3.47;3.17;;;;;;;;;;5085121;28;20441;-52
2022/06/18 01:00:30;;;;;;;3.50;3.20;;;;;;;;;;5085331;28;20678;-51
2022/06/18 01:02:56;;;;;;;2.77;2.57;;;;;;;;;;5072455;28;20227;-50
2022/06/18 01:05:24;;;;;;;3.63;2.93;;;;;;;;;;5066886;28;20180;-52
2022/06/18 01:07:54;;;;;;;3.97;3.23;;;;;;;;;;5081791;28;20192;-52
2022/06/18 01:10:22;;;;;;;3.27;2.97;;;;;;;;;;5094383;28;20604;-51
2022/06/18 01:12:49;;;;;;;3.30;3.00;;;;;;;;;;5062972;28;20274;-51
2022/06/18 01:15:20;;;;;;;3.67;3.30;;;;;;;;;;5080530;28;20215;-51
2022/06/18 01:17:47;;;;;;;3.50;3.20;;;;;;;;;;5070488;28;20299;-51
2022/06/18 01:20:14;;;;;;;3.60;3.30;;;;;;;;;;5053486;28;20226;-52
2022/06/18 01:22:47;;;;;;;5.53;4.03;;;;;;;;;;5083029;28;20184;-52
2022/06/18 01:25:14;;;;;;;3.57;3.27;;;;;;;;;;5047419;28;20188;-51
2022/06/18 01:27:40;;;;;;;3.10;2.87;;;;;;;;;;5081188;28;20164;-52
2022/06/18 01:30:08;;;;;;;3.90;3.60;;;;;;;;;;5065319;28;20182;-51
2022/06/18 01:32:34;;;;;;;3.40;3.10;;;;;;;;;;5064732;28;20565;-51
2022/06/18 01:35:01;;;;;;;3.63;3.33;;;;;;;;;;5070967;28;20201;-52
2022/06/18 01:37:28;;;;;;;3.53;3.13;;;;;;;;;;5057932;28;20443;-52
2022/06/18 01:39:55;;;;;;;3.63;3.17;;;;;;;;;;5084700;28;20207;-52
2022/06/18 01:42:33;;;;;;;3.50;3.20;;;;;;;;;;5066466;28;20662;-51
2022/06/18 01:45:03;;;;;;;3.07;2.83;;;;;;;;;;5082469;28;20183;-50
2022/06/18 01:47:33;;;;;;;3.70;3.40;;;;;;;;;;5067997;27;20233;-51
2022/06/18 01:50:07;;;;;;;3.60;3.30;;;;;;;;;;5086044;28;20175;-50
2022/06/18 01:52:36;;;;;;;3.47;3.17;;;;;;;;;;5084279;28;20201;-51
2022/06/18 01:55:07;;;;;;;5.50;3.10;;;;;;;;;;5085795;28;20482;-51
2022/06/18 01:57:35;;;;;;;3.20;3.00;;;;;;;;;;5084181;28;20551;-50
2022/06/18 02:00:07;;;;;;;3.30;3.00;;;;;;;;;;5104801;27;20224;-51
2022/06/18 02:02:33;;;;;;;6.30;2.97;;;;;;;;;;5099160;27;20219;-50
2022/06/18 02:05:00;;;;;;;3.50;3.20;;;;;;;;;;5104891;27;20183;-50
2022/06/18 02:07:26;;;;;;;3.67;3.37;;;;;;;;;;5104889;27;20218;-49
2022/06/18 02:09:55;;;;;;;3.67;3.37;;;;;;;;;;5104406;27;20547;-51
2022/06/18 02:12:23;;;;;;;3.50;3.20;;;;;;;;;;5084588;28;20199;-50
2022/06/18 02:14:52;;;;;;;3.33;3.03;;;;;;;;;;5101122;28;21009;-50
2022/06/18 02:17:19;;;;;;;4.67;3.30;;;;;;;;;;5108735;27;20179;-51
2022/06/18 02:19:49;;;;;;;3.37;3.17;;;;;;;;;;5107820;27;20629;-51
2022/06/18 02:22:16;;;;;;;3.57;3.27;;;;;;;;;;5088080;28;20176;-51
2022/06/18 02:24:42;;;;;;;3.33;3.03;;;;;;;;;;5101734;27;20523;-51
2022/06/18 02:27:13;;;;;;;4.00;3.40;;;;;;;;;;5087808;28;20937;-52
2022/06/18 02:29:40;;;;;;;3.70;3.10;;;;;;;;;;5084634;28;20176;-50
2022/06/18 02:32:10;;;;;;;3.13;2.93;;;;;;;;;;5087950;28;20314;-50
2022/06/18 02:34:36;;;;;;;3.13;2.83;;;;;;;;;;5086947;28;20673;-51
2022/06/18 02:37:12;;;;;;;3.33;3.03;;;;;;;;;;5087501;28;20189;-51
2022/06/18 02:39:40;;;;;;;2.70;2.50;;;;;;;;;;5101348;28;20181;-51
2022/06/18 02:42:08;;;;;;;3.83;3.27;;;;;;;;;;5087893;28;20183;-51
2022/06/18 02:44:34;;;;;;;3.77;3.20;;;;;;;;;;5103564;27;20262;-50
2022/06/18 02:47:06;;;;;;;3.13;2.80;;;;;;;;;;5091441;28;20179;-51
2022/06/18 02:49:38;;;;;;;4.67;3.07;;;;;;;;;;5087393;28;20559;-52
2022/06/18 02:52:05;;;;;;;3.37;3.13;;;;;;;;;;5105520;28;20272;-52
2022/06/18 02:54:31;;;;;;;3.30;3.00;;;;;;;;;;5104657;28;20195;-51
2022/06/18 02:56:59;;;;;;;3.77;2.97;;;;;;;;;;5104459;28;20190;-50
2022/06/18 02:59:25;;;;;;;4.17;3.53;;;;;;;;;;5102114;28;20197;-52
2022/06/18 03:01:52;;;;;;;4.03;3.60;;;;;;;;;;5080912;28;20275;-51
2022/06/18 03:04:18;;;;;;;3.30;3.10;;;;;;;;;;5084651;28;20223;-51
2022/06/18 03:06:44;;;;;;;3.07;2.87;;;;;;;;;;5085193;28;20203;-52
2022/06/18 03:09:11;;;;;;;3.07;2.77;;;;;;;;;;5085283;28;20310;-52
2022/06/18 03:14:22;;;;;;;3.07;2.87;;;;;;;;;;5083386;28;20242;-53
2022/06/18 03:16:48;;;;;;;8.87;8.37;;;;;;;;;;5083056;28;20176;-51
2022/06/18 03:19:33;;;;;;;3.67;3.37;;;;;;;;;;5066563;28;20190;-52
2022/06/18 03:22:13;;;;;;;2.87;2.67;;;;;;;;;;5084105;28;20194;-52
2022/06/18 03:24:43;;;;;;;3.40;3.20;;;;;;;;;;5084933;28;20179;-51
2022/06/18 03:27:10;;;;;;;2.80;2.60;;;;;;;;;;5069588;28;20184;-52
2022/06/18 03:29:36;;;;;;;3.20;2.90;;;;;;;;;;5084613;28;20195;-51
2022/06/18 03:32:03;;;;;;;4.30;4.00;;;;;;;;;;5064056;28;20608;-52
2022/06/18 03:34:30;;;;;;;2.93;2.70;;;;;;;;;;5058088;28;20184;-52
2022/06/18 03:36:56;;;;;;;3.47;3.17;;;;;;;;;;5065574;28;20195;-52
2022/06/18 03:39:23;;;;;;;3.00;2.80;;;;;;;;;;5086044;28;20586;-52
2022/06/18 03:41:50;;;;;;;2.90;2.70;;;;;;;;;;5066498;28;20207;-51
2022/06/18 03:44:16;;;;;;;3.63;3.17;;;;;;;;;;5086501;28;20180;-50
2022/06/18 03:46:43;;;;;;;3.57;3.27;;;;;;;;;;5066122;28;20188;-52
2022/06/18 03:49:16;;;;;;;3.07;2.87;;;;;;;;;;5087891;28;20635;-51
2022/06/18 03:51:42;;;;;;;3.10;2.90;;;;;;;;;;5076062;28;20203;-51
2022/06/18 03:54:09;;;;;;;2.93;2.73;;;;;;;;;;5063526;28;20176;-52
2022/06/18 03:56:43;;;;;;;4.90;3.33;;;;;;;;;;5066894;28;20190;-52
2022/06/18 03:59:10;;;;;;;3.27;3.07;;;;;;;;;;5066656;28;20672;-52
2022/06/18 04:01:40;;;;;;;3.20;3.00;;;;;;;;;;5062462;28;20187;-52
2022/06/18 04:04:06;;;;;;;3.43;3.13;;;;;;;;;;5060611;28;20230;-51
2022/06/18 04:06:32;;;;;;;3.30;3.00;;;;;;;;;;5080907;28;20216;-52
2022/06/18 04:08:59;;;;;;;3.20;2.90;;;;;;;;;;5081022;28;20203;-53
2022/06/18 04:11:25;;;;;;;3.90;3.03;;;;;;;;;;5080756;28;20640;-52
2022/06/18 04:13:51;;;;;;;3.80;3.50;;;;;;;;;;5080483;28;20225;-52
2022/06/18 04:16:17;;;;;;;3.27;2.97;;;;;;;;;;5083226;28;20182;-52
2022/06/18 04:18:43;;;;;;;3.23;2.93;;;;;;;;;;5079539;28;20188;-51
2022/06/18 04:21:10;;;;;;;4.50;4.10;;;;;;;;;;5080009;28;20298;-51
2022/06/18 04:23:37;;;;;;;3.17;2.87;;;;;;;;;;5082738;28;20670;-52
2022/06/18 04:26:03;;;;;;;3.00;2.80;;;;;;;;;;5081402;28;20894;-52
2022/06/18 04:28:33;;;;;;;3.17;2.97;;;;;;;;;;5082587;28;20187;-52
2022/06/18 04:30:59;;;;;;;2.93;2.73;;;;;;;;;;5078147;28;20184;-51
2022/06/18 04:33:26;;;;;;;3.40;3.20;;;;;;;;;;5081004;28;20188;-56
2022/06/18 04:35:53;;;;;;;3.47;3.17;;;;;;;;;;5079995;28;20206;-51
2022/06/18 04:38:20;;;;;;;3.13;2.83;;;;;;;;;;5082135;28;20176;-51
2022/06/18 04:40:47;;;;;;;2.90;2.70;;;;;;;;;;5083196;28;20711;-51
2022/06/18 04:43:13;;;;;;;3.63;2.83;;;;;;;;;;5084937;28;20528;-50
2022/06/18 04:45:40;;;;;;;3.13;2.93;;;;;;;;;;5084497;28;20207;-52
2022/06/18 04:48:09;;;;;;;2.90;2.70;;;;;;;;;;5086710;28;20191;-51
2022/06/18 04:50:37;;;;;;;3.10;2.90;;;;;;;;;;5083237;28;20598;-51
2022/06/18 04:53:03;;;;;;;3.27;2.97;;;;;;;;;;5086973;28;20256;-51
2022/06/18 04:55:29;;;;;;;2.77;2.57;;;;;;;;;;5082393;28;20202;-50
2022/06/18 04:57:55;;;;;;;3.43;2.90;;;;;;;;;;5085347;28;20191;-51
2022/06/18 05:00:21;;;;;;;3.63;3.40;;;;;;;;;;5075292;28;21116;-52
2022/06/18 05:02:48;;;;;;;3.03;2.70;;;;;;;;;;5081837;28;20240;-51
2022/06/18 05:05:16;;;;;;;3.10;2.90;;;;;;;;;;5067506;28;20184;-52
2022/06/18 05:07:43;;;;;;;4.43;3.17;;;;;;;;;;5071619;28;20662;-51
2022/06/18 05:10:10;;;;;;;2.93;2.60;;;;;;;;;;5060420;28;20176;-51
2022/06/18 05:12:37;;;;;;;3.20;3.00;;;;;;;;;;5085608;28;20212;-52
2022/06/18 05:15:04;;;;;;;3.73;2.60;;;;;;;;;;5081804;28;20221;-51
2022/06/18 05:17:32;;;;;;;3.20;3.00;;;;;;;;;;5054085;28;20180;-51
2022/06/18 05:19:58;;;;;;;6.73;3.20;;;;;;;;;;5085719;28;20190;-51
2022/06/18 05:22:25;;;;;;;3.20;3.00;;;;;;;;;;5086643;28;20702;-51
2022/06/18 05:24:51;;;;;;;3.43;3.13;;;;;;;;;;5082574;28;20537;-52
2022/06/18 05:27:26;;;;;;;2.80;2.60;;;;;;;;;;5063105;28;20218;-51
2022/06/18 05:29:52;;;;;;;3.13;2.93;;;;;;;;;;5083179;28;20222;-51
2022/06/18 05:32:18;;;;;;;3.23;2.93;;;;;;;;;;5071276;28;20212;-51
2022/06/18 05:34:45;;;;;;;2.77;2.57;;;;;;;;;;5087508;28;20183;-50
2022/06/18 05:37:15;;;;;;;3.10;2.90;;;;;;;;;;5066606;28;20180;-51
2022/06/18 05:39:42;;;;;;;3.83;3.13;;;;;;;;;;5089197;28;20590;-51
2022/06/18 05:42:08;;;;;;;3.63;2.90;;;;;;;;;;5082155;28;20536;-50
2022/06/18 05:44:35;;;;;;;2.83;2.60;;;;;;;;;;5059716;28;20192;-51
2022/06/18 05:47:01;;;;;;;3.17;2.87;;;;;;;;;;5077104;28;20541;-50
2022/06/18 05:49:27;;;;;;;3.13;2.83;;;;;;;;;;5086728;28;20682;-51
2022/06/18 05:51:53;;;;;;;2.80;2.60;;;;;;;;;;5095405;28;20215;-51
2022/06/18 05:54:19;;;;;;;2.77;2.57;;;;;;;;;;5072047;28;20183;-50
2022/06/18 05:56:46;;;;;;;3.77;2.80;;;;;;;;;;5082064;28;20503;-50
2022/06/18 05:59:12;;;;;;;2.73;2.53;;;;;;;;;;5068024;28;20221;-52
2022/06/18 06:01:39;;;;;;;4.63;2.83;;;;;;;;;;5068211;28;20669;-50
2022/06/18 06:04:05;;;;;;;2.83;2.23;;;;;;;;;;5048972;28;20271;-51
2022/06/18 06:06:32;;;;;;;3.27;3.07;;;;;;;;;;5042461;28;20197;-51
2022/06/18 06:08:58;;;;;;;4.13;3.17;;;;;;;;;;5054538;28;20756;-51
2022/06/18 06:11:30;;;;;;;2.80;2.60;;;;;;;;;;5062209;28;20220;-51
2022/06/18 06:13:57;;;;;;;2.90;2.60;;;;;;;;;;5062198;28;20184;-51
2022/06/18 06:16:24;;;;;;;3.50;2.57;;;;;;;;;;5063844;28;20234;-49
2022/06/18 06:18:50;;;;;;;3.07;2.87;;;;;;;;;;5059632;28;20184;-50
2022/06/18 06:21:16;;;;;;;4.13;3.33;;;;;;;;;;5044192;28;20215;-50
2022/06/18 06:23:43;;;;;;;3.07;2.87;;;;;;;;;;5058850;28;20823;-50
2022/06/18 06:26:20;;;;;;;4.40;3.17;;;;;;;;;;5039193;28;20192;-51
2022/06/18 06:28:46;;;;;;;3.40;3.10;;;;;;;;;;5045350;28;20183;-49
2022/06/18 06:31:12;;;;;;;2.90;2.70;;;;;;;;;;5060532;28;20180;-51
2022/06/18 06:33:39;;;;;;;3.83;3.47;;;;;;;;;;5061768;28;20567;-50
2022/06/18 06:36:05;;;;;;;4.00;2.87;;;;;;;;;;5062909;28;20435;-50
2022/06/18 06:38:32;;;;;;;3.23;2.90;;;;;;;;;;5064094;28;20181;-51
2022/06/18 06:40:59;;;;;;;3.53;3.23;;;;;;;;;;5046291;28;20208;-50
2022/06/18 06:43:25;;;;;;;4.10;3.57;;;;;;;;;;5066870;28;20599;-50
2022/06/18 06:45:52;;;;;;;5.03;2.80;;;;;;;;;;5064484;28;20316;-51
2022/06/18 06:48:18;;;;;;;3.80;3.40;;;;;;;;;;5047862;28;20473;-51
2022/06/18 06:50:47;;;;;;;2.80;2.60;;;;;;;;;;5047802;28;20205;-52
2022/06/18 06:53:16;;;;;;;3.57;3.27;;;;;;;;;;5062610;28;20558;-51
2022/06/18 06:58:27;;;;;;;2.97;2.70;;;;;;;;;;5065258;28;20483;-51
2022/06/18 07:00:55;;;;;;;4.83;3.40;;;;;;;;;;5047264;28;20214;-51
2022/06/18 07:03:27;;;;;;;5.17;3.07;;;;;;;;;;5057590;28;20570;-52
2022/06/18 07:05:54;;;;;;;3.50;3.20;;;;;;;;;;5085474;28;20622;-51
2022/06/18 07:08:23;;;;;;;3.20;2.90;;;;;;;;;;5083832;28;20199;-55
2022/06/18 07:10:50;;;;;;;3.30;3.10;;;;;;;;;;5082210;28;20179;-52
2022/06/18 07:13:17;;;;;;;2.73;2.53;;;;;;;;;;5088747;28;20570;-52
2022/06/18 07:15:45;;;;;;;3.10;2.70;;;;;;;;;;5103735;28;20183;-53
2022/06/18 07:18:13;;;;;;;4.87;3.40;;;;;;;;;;5088100;28;20179;-52
2022/06/18 07:20:39;;;;;;;4.63;3.63;;;;;;;;;;5105456;28;20236;-53
2022/06/18 07:23:06;;;;;;;2.93;2.73;;;;;;;;;;5085999;28;20664;-52
2022/06/18 07:25:32;;;;;;;3.57;3.27;;;;;;;;;;5105572;28;20187;-52
2022/06/18 07:27:58;;;;;;;3.13;2.93;;;;;;;;;;5104108;28;20183;-52
2022/06/18 07:30:24;;;;;;;4.87;3.20;;;;;;;;;;5104914;28;20639;-52
2022/06/18 07:32:51;;;;;;;3.30;3.00;;;;;;;;;;5107005;28;20304;-52
2022/06/18 07:35:25;;;;;;;3.53;3.23;;;;;;;;;;5087691;28;20167;-52
2022/06/18 07:37:51;;;;;;;3.53;3.07;;;;;;;;;;5077452;28;20282;-51
2022/06/18 07:40:18;;;;;;;3.33;3.00;;;;;;;;;;5101283;28;20179;-51
2022/06/18 07:42:46;;;;;;;4.40;3.50;;;;;;;;;;5105622;28;20198;-53
2022/06/18 07:45:16;;;;;;;3.23;3.03;;;;;;;;;;5103892;28;20195;-52
2022/06/18 07:47:45;;;;;;;4.90;4.10;;;;;;;;;;5087595;28;20618;-52
2022/06/18 07:50:11;;;;;;;3.70;3.40;;;;;;;;;;5104915;28;20645;-53
2022/06/18 07:52:38;;;;;;;4.50;3.77;;;;;;;;;;5087484;28;20206;-53
2022/06/18 07:55:05;;;;;;;4.10;3.60;;;;;;;;;;5082658;28;20654;-54
2022/06/18 07:57:31;;;;;;;7.50;3.67;;;;;;;;;;5089955;28;20186;-53
2022/06/18 07:59:57;;;;;;;6.43;3.97;;;;;;;;;;5102123;28;20635;-53
2022/06/18 08:02:24;;;;;;;5.80;4.13;;;;;;;;;;5116046;28;20191;-53
2022/06/18 08:04:50;;;;;;;4.53;3.40;;;;;;;;;;5086923;28;20408;-53
2022/06/18 08:07:17;;;;;;;5.07;3.67;;;;;;;;;;5082176;28;20181;-53
2022/06/18 08:09:43;;;;;;;4.83;3.30;;;;;;;;;;5079907;28;20191;-53
2022/06/18 08:12:09;;;;;;;5.97;3.80;;;;;;;;;;5075218;28;20205;-53
2022/06/18 08:14:38;;;;;;;6.70;4.00;;;;;;;;;;5079583;28;20252;-56
2022/06/18 08:17:04;;;;;;;5.03;3.60;;;;;;;;;;5071108;28;20681;-53
2022/06/18 08:19:31;;;;;;;4.07;3.67;;;;;;;;;;5066388;28;20571;-53
2022/06/18 08:21:57;;;;;;;5.03;3.60;;;;;;;;;;5081662;28;20183;-53
2022/06/18 08:24:25;;;;;;;4.33;3.43;;;;;;;;;;5081112;28;20513;-53
2022/06/18 08:26:51;;;;;;;4.90;3.60;;;;;;;;;;5079087;28;20177;-52
2022/06/18 08:29:19;;;;;;;4.10;3.70;;;;;;;;;;5086943;28;20189;-52
2022/06/18 08:31:46;;;;;;;4.00;3.63;;;;;;;;;;5066467;28;20286;-53
2022/06/18 08:34:16;;;;;;;4.10;3.70;;;;;;;;;;5088170;28;20735;-52
2022/06/18 08:36:42;;;;;;;4.37;3.70;;;;;;;;;;5077238;28;20270;-51
2022/06/18 08:39:15;;;;;;;3.90;3.60;;;;;;;;;;5085733;28;20188;-52
2022/06/18 08:42:00;;;;;;;6.47;3.43;;;;;;;;;;5064877;28;20641;-51
2022/06/18 08:44:30;;;;;;;4.03;3.70;;;;;;;;;;5067177;28;20187;-53
2022/06/18 08:47:10;;;;;;;3.70;3.40;;;;;;;;;;5067169;28;20184;-52
2022/06/18 08:50:03;;;;;;;6.67;4.17;;;;;;;;;;5070273;28;20183;-52
2022/06/18 08:52:51;;;;;;;4.30;3.73;;;;;;;;;;5066121;28;20713;-53
2022/06/18 08:55:41;;;;;;;4.47;4.07;;;;;;;;;;5088856;28;20589;-51
2022/06/18 08:58:10;;;;;;;5.03;3.57;;;;;;;;;;5073085;28;20180;-51
2022/06/18 09:00:55;;;;;;;3.70;3.40;;;;;;;;;;5092111;28;20180;-52
2022/06/18 09:03:37;;;;;;;5.07;4.17;;;;;;;;;;5078578;27;20315;-51
2022/06/18 09:06:12;;;;;;;5.93;3.97;;;;;;;;;;5071255;28;20227;-51
2022/06/18 09:08:57;;;;;;;4.13;3.70;;;;;;;;;;5056435;28;20263;-51
2022/06/18 09:11:30;;;;;;;4.10;3.67;;;;;;;;;;5048590;28;20260;-51
2022/06/18 09:14:16;;;;;;;4.20;3.80;;;;;;;;;;5047045;28;20188;-53
2022/06/18 09:16:50;;;;;;;4.80;3.60;;;;;;;;;;5082187;28;20180;-52
2022/06/18 09:19:18;;;;;;;4.77;4.20;;;;;;;;;;5049172;28;20726;-52
2022/06/18 09:22:05;;;;;;;4.60;4.20;;;;;;;;;;5057639;28;20829;-51
2022/06/18 09:24:37;;;;;;;5.07;3.87;;;;;;;;;;5060858;28;20654;-51
2022/06/18 09:27:05;;;;;;;6.43;4.10;;;;;;;;;;5053862;28;20180;-51
2022/06/18 09:29:50;;;;;;;4.43;4.03;;;;;;;;;;5076912;28;20194;-52
2022/06/18 09:32:20;;;;;;;4.73;3.73;;;;;;;;;;5079765;28;20225;-52
2022/06/18 09:35:01;;;;;;;5.33;4.27;;;;;;;;;;5061730;28;20188;-52
2022/06/18 09:37:36;;;;;;;5.10;4.53;;;;;;;;;;5065400;28;20171;-52
2022/06/18 09:40:04;;;;;;;5.83;3.83;;;;;;;;;;5074659;28;20240;-51
2022/06/18 09:42:37;;;;;;;6.27;3.83;;;;;;;;;;5062012;28;20176;-52
2022/06/18 09:45:08;;;;;;;4.40;4.00;;;;;;;;;;5048309;28;20189;-52
2022/06/18 09:47:38;;;;;;;4.13;3.67;;;;;;;;;;5050222;28;20188;-53
2022/06/18 09:50:04;;;;;;;4.70;3.60;;;;;;;;;;5066865;28;20225;-53
2022/06/18 09:52:39;;;;;;;5.13;3.80;;;;;;;;;;5062800;28;20209;-53
2022/06/18 09:55:09;;;;;;;4.60;4.13;;;;;;;;;;5067726;28;20165;-52
2022/06/18 09:57:44;;;;;;;4.93;3.93;;;;;;;;;;5053506;28;20320;-52
2022/06/18 10:00:15;;;;;;;4.97;4.30;;;;;;;;;;5056207;28;20235;-52
2022/06/18 10:02:48;;;;;;;5.40;3.77;;;;;;;;;;5065698;28;20187;-52
2022/06/18 10:08:08;;;;;;;4.63;3.90;;;;;;;;;;5085736;28;20206;-52
2022/06/18 10:10:35;;;;;;;5.17;3.83;;;;;;;;;;5065513;28;20201;-52
2022/06/18 10:13:02;;;;;;;6.23;4.17;;;;;;;;;;5080396;28;20214;-53
2022/06/18 10:15:28;;;;;;;7.43;4.40;;;;;;;;;;5084495;28;20260;-52
2022/06/18 10:17:54;;;;;;;6.27;4.43;;;;;;;;;;5080507;28;20183;-51
2022/06/18 10:20:40;;;;;;;5.60;3.70;;;;;;;;;;5076139;28;20189;-53
2022/06/18 10:23:22;;;;;;;7.57;4.07;;;;;;;;;;5083751;28;20196;-52
2022/06/18 10:25:48;;;;;;;5.03;3.77;;;;;;;;;;5077900;28;20220;-52
2022/06/18 10:28:14;;;;;;;4.33;3.93;;;;;;;;;;5082758;28;20666;-51
2022/06/18 10:30:41;;;;;;;4.40;4.00;;;;;;;;;;5085161;28;20256;-51
2022/06/18 10:33:17;;;;;;;5.37;4.20;;;;;;;;;;5083511;28;20667;-51
2022/06/18 10:35:46;;;;;;;5.83;4.03;;;;;;;;;;5084344;28;20180;-52
2022/06/18 10:38:12;;;;;;;4.87;4.13;;;;;;;;;;5084486;28;20242;-52
2022/06/18 10:41:05;;;;;;;4.30;3.90;;;;;;;;;;5083708;28;20259;-51
2022/06/18 10:43:37;;;;;;;8.20;4.07;;;;;;;;;;5080980;28;20247;-53
2022/06/18 10:46:09;;;;;;;5.13;4.10;;;;;;;;;;5084339;28;20199;-52
2022/06/18 10:48:36;;;;;;;7.87;4.13;;;;;;;;;;5082954;28;20649;-53
2022/06/18 10:51:03;;;;;;;6.53;3.90;;;;;;;;;;5084304;28;20232;-53
2022/06/18 10:53:34;;;;;;;9.10;4.60;;;;;;;;;;5082241;28;20199;-51
2022/06/18 10:56:02;;;;;;;8.70;4.20;;;;;;;;;;5084312;28;20622;-53
2022/06/18 10:58:29;;;;;;;8.03;5.07;;;;;;;;;;5082708;28;20211;-53
2022/06/18 11:00:59;;;;;;;10.23;4.50;;;;;;;;;;5085986;28;20491;-53
2022/06/18 11:03:33;;;;;;;5.40;3.83;;;;;;;;;;5062957;28;20250;-53
2022/06/18 11:06:03;;;;;;;10.07;4.25;;;;;;;;;;5055711;28;20684;-53
2022/06/18 11:08:30;;;;;;;8.20;3.88;;;;;;;;;;5045933;28;20204;-53
2022/06/18 11:11:04;;;;;;;9.85;4.30;;;;;;;;;;5045443;28;20254;-53
2022/06/18 11:13:35;;;;;;;9.10;4.13;;;;;;;;;;5053963;28;20899;-53
2022/06/18 11:16:16;;;;;;;6.60;4.15;;;;;;;;;;5067750;28;20173;-53
2022/06/18 11:18:47;;;;;;;6.97;3.70;;;;;;;;;;5065791;28;20169;-53
2022/06/18 11:21:22;;;;;;;6.30;4.03;;;;;;;;;;5045485;28;21465;-52
2022/06/18 11:23:53;;;;;;;6.53;3.83;;;;;;;;;;5038920;28;20530;-54
2022/06/18 11:26:23;;;;;;;9.35;4.35;;;;;;;;;;5061033;28;20532;-54
2022/06/18 11:28:50;;;;;;;7.53;4.25;;;;;;;;;;5061701;28;20171;-54
2022/06/18 11:31:42;;;;;;;9.15;4.60;;;;;;;;;;5053342;28;20272;-53
2022/06/18 11:34:38;;;;;;;7.32;3.95;;;;;;;;;;5043400;28;20250;-52
2022/06/18 11:37:14;;;;;;;5.22;3.75;;;;;;;;;;5027858;28;20539;-52
2022/06/18 11:39:40;;;;;;;6.72;3.95;;;;;;;;;;5037307;28;20292;-52
2022/06/18 11:42:08;;;;;;;11.10;4.07;;;;;;;;;;5023495;28;20279;-53
2022/06/18 11:44:47;;;;;;;9.95;4.10;;;;;;;;;;5041037;28;20295;-53
2022/06/18 11:47:34;;;;;;;7.32;4.35;;;;;;;;;;5063288;28;20269;-52
2022/06/18 11:50:05;;;;;;;10.48;4.85;;;;;;;;;;5063187;28;20642;-53
2022/06/18 11:52:35;;;;;;;8.60;4.00;;;;;;;;;;5048366;28;20207;-52
2022/06/18 11:55:21;;;;;;;9.73;4.30;;;;;;;;;;5060555;28;20524;-54
2022/06/18 11:58:06;;;;;;;10.20;4.13;;;;;;;;;;5069906;28;20169;-53
2022/06/18 12:00:56;;;;;;;6.65;4.00;;;;;;;;;;5051210;28;20295;-53
2022/06/18 12:03:34;;;;;;;8.50;5.90;;;;;;;;;;5054294;28;20226;-53
2022/06/18 12:06:13;;;;;;;7.45;4.07;;;;;;;;;;5087566;28;20547;-52
2022/06/18 12:08:39;;;;;;;9.63;4.13;;;;;;;;;;5095262;28;20195;-53
2022/06/18 12:11:09;;;;;;;7.63;4.28;;;;;;;;;;5088043;28;20188;-53
2022/06/18 12:13:48;;;;;;;7.20;5.47;;;;;;;;;;5096211;28;20197;-53
2022/06/18 12:16:19;;;;;;;7.18;4.30;;;;;;;;;;5090534;28;20214;-53
2022/06/18 12:18:52;;;;;;;9.85;4.07;;;;;;;;;;5071526;28;20231;-52
2022/06/18 12:21:27;;;;;;;9.02;5.70;;;;;;;;;;5065234;28;20915;-53
2022/06/18 12:24:00;;;;;;;16.25;4.88;;;;;;;;;;5068688;28;20183;-53
2022/06/18 12:26:48;;;;;;;6.78;4.00;;;;;;;;;;5079272;28;20690;-53
2022/06/18 12:29:14;;;;;;;9.45;3.90;;;;;;;;;;5091738;28;20189;-53
2022/06/18 12:31:59;;;;;;;6.07;3.97;;;;;;;;;;5086263;28;20207;-52
2022/06/18 12:34:25;;;;;;;7.70;4.78;;;;;;;;;;5069846;28;20263;-52
2022/06/18 12:37:10;;;;;;;7.57;3.95;;;;;;;;;;5071156;28;20604;-53
2022/06/18 12:39:39;;;;;;;8.52;4.20;;;;;;;;;;5079284;28;20183;-54
2022/06/18 12:42:08;;;;;;;9.50;4.70;;;;;;;;;;5104990;28;20932;-52
2022/06/18 12:44:51;;;;;;;11.27;4.47;;;;;;;;;;5106327;28;20414;-53
2022/06/18 12:47:33;;;;;;;11.68;5.35;;;;;;;;;;5092423;28;20657;-52
2022/06/18 12:50:13;;;;;;;7.30;4.55;;;;;;;;;;5079049;28;20606;-52
2022/06/18 12:52:40;;;;;;;9.40;4.15;;;;;;;;;;5077946;28;20211;-54
2022/06/18 12:55:24;;;;;;;9.68;4.20;;;;;;;;;;5089501;28;20212;-54
2022/06/18 12:58:09;;;;;;;7.20;4.65;;;;;;;;;;5090829;28;20632;-53
2022/06/18 13:00:50;;;;;;;8.02;4.90;;;;;;;;;;5093311;28;20206;-53
2022/06/18 13:03:32;;;;;;;10.15;4.68;;;;;;;;;;5066712;28;20185;-53
2022/06/18 13:06:11;;;;;;;6.43;4.65;;;;;;;;;;5068808;28;20740;-53
2022/06/18 13:08:49;;;;;;;5.63;4.20;;;;;;;;;;5062873;28;20175;-56
2022/06/18 13:11:22;;;;;;;7.75;5.43;;;;;;;;;;5080546;28;20175;-53
2022/06/18 13:13:48;;;;;;;7.13;4.53;;;;;;;;;;5055483;28;20525;-52
2022/06/18 13:16:20;;;;;;;4.50;4.10;;;;;;;;;;5071713;28;20179;-53
2022/06/18 13:18:55;;;;;;;5.80;4.30;;;;;;;;;;5061201;28;20496;-53
2022/06/18 13:21:21;;;;;;;6.35;4.80;;;;;;;;;;5053901;28;20180;-52
2022/06/18 13:29:26;;;;;;;7.82;5.10;;;;;;;;;;5071675;28;20174;-53
2022/06/18 13:32:00;;;;;;;6.07;5.20;;;;;;;;;;5046430;28;20651;-52
2022/06/18 13:34:35;;;;;;;8.45;4.95;;;;;;;;;;5057551;28;20249;-53
2022/06/18 13:37:15;;;;;;;5.30;4.43;;;;;;;;;;5057384;28;20204;-53
2022/06/18 13:39:50;;;;;;;7.65;4.30;;;;;;;;;;5045166;28;20289;-52
2022/06/18 13:42:25;;;;;;;5.45;4.05;;;;;;;;;;5045100;28;20215;-53
2022/06/18 13:45:10;;;;;;;6.43;4.35;;;;;;;;;;5048772;28;20172;-53
2022/06/18 13:47:55;;;;;;;8.15;4.65;;;;;;;;;;5072242;28;20667;-53
2022/06/18 13:50:41;;;;;;;7.60;4.40;;;;;;;;;;5069441;28;20203;-52
2022/06/18 13:53:08;;;;;;;10.02;4.75;;;;;;;;;;5032622;28;20215;-52
2022/06/18 13:55:42;;;;;;;10.10;5.43;;;;;;;;;;5059264;28;20260;-51
2022/06/18 13:58:19;;;;;;;7.35;5.65;;;;;;;;;;5052188;28;20592;-52
2022/06/18 14:00:45;;;;;;;7.65;5.15;;;;;;;;;;5038845;28;20650;-52
2022/06/18 14:03:17;;;;;;;8.40;6.28;;;;;;;;;;5059365;28;20186;-52
2022/06/18 14:05:45;;;;;;;5.30;4.30;;;;;;;;;;5055018;28;20231;-52
2022/06/18 14:08:32;;;;;;;8.75;4.80;;;;;;;;;;5086734;28;20170;-53
2022/06/18 14:11:01;;;;;;;8.55;5.13;;;;;;;;;;5035716;28;20748;-53
2022/06/18 14:13:27;;;;;;;10.55;4.97;;;;;;;;;;5047440;28;20299;-51
2022/06/18 14:15:56;;;;;;;5.80;4.50;;;;;;;;;;5045605;28;20565;-52
2022/06/18 14:18:22;;;;;;;4.78;4.28;;;;;;;;;;5071099;28;20716;-52
2022/06/18 14:21:00;;;;;;;6.20;5.03;;;;;;;;;;5026022;28;20199;-52
2022/06/18 14:23:37;;;;;;;7.22;4.82;;;;;;;;;;5057091;28;20195;-53
2022/06/18 14:26:06;;;;;;;6.65;4.22;;;;;;;;;;5062218;28;20534;-53
2022/06/18 14:28:35;;;;;;;11.30;4.82;;;;;;;;;;5046734;28;20198;-53
2022/06/18 14:31:22;;;;;;;7.18;5.10;;;;;;;;;;5075671;28;20609;-52
2022/06/18 14:33:51;;;;;;;7.03;4.40;;;;;;;;;;5006880;28;20201;-53
2022/06/18 14:36:19;;;;;;;6.15;4.78;;;;;;;;;;5073256;28;20168;-53
2022/06/18 14:38:47;;;;;;;5.63;5.13;;;;;;;;;;5078564;28;20186;-53
2022/06/18 14:41:37;;;;;;;10.75;4.85;;;;;;;;;;5048384;28;20185;-52
2022/06/18 14:44:12;;;;;;;7.57;4.40;;;;;;;;;;5046178;28;20175;-52
2022/06/18 14:47:02;;;;;;;8.60;4.97;;;;;;;;;;5074718;28;20178;-52
2022/06/18 14:49:50;;;;;;;7.82;5.07;;;;;;;;;;5045862;28;20281;-52
2022/06/18 14:52:36;;;;;;;6.30;5.15;;;;;;;;;;5082826;28;20539;-51
2022/06/18 14:55:14;;;;;;;5.30;4.22;;;;;;;;;;5045421;28;20184;-52
2022/06/18 14:57:44;;;;;;;7.30;5.38;;;;;;;;;;5061475;28;20180;-52
2022/06/18 15:00:17;;;;;;;7.25;5.28;;;;;;;;;;5079398;28;20172;-51
2022/06/18 15:02:51;;;;;;;5.97;4.78;;;;;;;;;;5066081;28;20180;-52
2022/06/18 15:05:28;;;;;;;7.05;5.18;;;;;;;;;;5062616;28;20219;-52
2022/06/18 15:07:57;;;;;;;6.22;5.18;;;;;;;;;;5078385;28;20648;-53
2022/06/18 15:10:31;;;;;;;6.97;5.28;;;;;;;;;;5068294;28;20202;-53
2022/06/18 15:12:59;;;;;;;7.05;4.85;;;;;;;;;;5068075;28;20208;-53
2022/06/18 15:20:56;;;;;;;9.15;5.20;;;;;;;;;;5083362;28;20525;-52
2022/06/18 15:26:09;;;;;;;7.07;5.13;;;;;;;;;;5082079;28;20263;-52
2022/06/18 15:28:39;;;;;;;5.47;4.80;;;;;;;;;;5073814;28;20575;-53
2022/06/18 15:31:26;;;;;;;10.73;4.68;;;;;;;;;;5060349;28;20684;-53